sensor_id;sensor_type;location;lat;lon;timestamp;P1;durP1;ratioP1;P2;durP2;ratioP2
36855;SDS011;22788;51.434;6.786;2023-04-01T00:01:05;5.83;;;1.83;;
36855;SDS011;22788;51.434;6.786;2023-04-01T00:03:31;3.40;;;2.03;;
36855;SDS011;22788;51.434;6.786;2023-04-01T00:05:57;4.87;;;2.30;;
36855;SDS011;22788;51.434;6.786;2023-04-01T00:08:25;7.13;;;2.30;;
36855;SDS011;22788;51.434;6.786;2023-04-01T00:10:52;3.73;;;1.87;;
36855;SDS011;22788;51.434;6.786;2023-04-01T00:13:18;7.60;;;2.30;;
36855;SDS011;22788;51.434;6.786;2023-04-01T00:15:44;2.90;;;1.63;;
36855;SDS011;22788;51.434;6.786;2023-04-01T00:18:10;3.70;;;1.70;;
36855;SDS011;22788;51.434;6.786;2023-04-01T00:20:36;5.37;;;2.10;;
36855;SDS011;22788;51.434;6.786;2023-04-01T00:23:02;5.00;;;2.00;;
36855;SDS011;22788;51.434;6.786;2023-04-01T00:25:29;5.37;;;1.70;;
36855;SDS011;22788;51.434;6.786;2023-04-01T00:27:54;4.23;;;1.87;;
36855;SDS011;22788;51.434;6.786;2023-04-01T00:30:20;3.03;;;2.30;;
36855;SDS011;22788;51.434;6.786;2023-04-01T00:32:46;7.10;;;2.33;;
36855;SDS011;22788;51.434;6.786;2023-04-01T00:35:11;6.27;;;2.53;;
36855;SDS011;22788;51.434;6.786;2023-04-01T00:37:37;4.87;;;2.07;;
36855;SDS011;22788;51.434;6.786;2023-04-01T00:40:03;4.30;;;1.93;;
36855;SDS011;22788;51.434;6.786;2023-04-01T00:42:32;9.90;;;3.90;;
36855;SDS011;22788;51.434;6.786;2023-04-01T00:44:58;8.77;;;4.40;;
36855;SDS011;22788;51.434;6.786;2023-04-01T00:47:44;7.20;;;3.83;;
36855;SDS011;22788;51.434;6.786;2023-04-01T00:50:09;5.53;;;2.77;;
36855;SDS011;22788;51.434;6.786;2023-04-01T00:52:35;4.23;;;2.17;;
36855;SDS011;22788;51.434;6.786;2023-04-01T00:55:01;4.67;;;2.00;;
36855;SDS011;22788;51.434;6.786;2023-04-01T00:57:31;3.27;;;1.93;;
36855;SDS011;22788;51.434;6.786;2023-04-01T01:00:00;3.97;;;1.90;;
36855;SDS011;22788;51.434;6.786;2023-04-01T01:02:25;6.60;;;2.23;;
36855;SDS011;22788;51.434;6.786;2023-04-01T01:04:51;3.17;;;2.10;;
36855;SDS011;22788;51.434;6.786;2023-04-01T01:07:20;5.40;;;2.30;;
36855;SDS011;22788;51.434;6.786;2023-04-01T01:09:53;6.40;;;2.20;;
36855;SDS011;22788;51.434;6.786;2023-04-01T01:12:28;5.63;;;2.77;;
36855;SDS011;22788;51.434;6.786;2023-04-01T01:15:02;3.40;;;1.93;;
36855;SDS011;22788;51.434;6.786;2023-04-01T01:17:37;6.17;;;3.27;;
36855;SDS011;22788;51.434;6.786;2023-04-01T01:20:23;6.37;;;2.50;;
36855;SDS011;22788;51.434;6.786;2023-04-01T01:23:12;4.53;;;2.03;;
36855;SDS011;22788;51.434;6.786;2023-04-01T01:25:58;8.37;;;2.90;;
36855;SDS011;22788;51.434;6.786;2023-04-01T01:28:44;3.13;;;2.47;;
36855;SDS011;22788;51.434;6.786;2023-04-01T01:31:20;3.77;;;2.53;;
36855;SDS011;22788;51.434;6.786;2023-04-01T01:33:54;4.67;;;2.63;;
36855;SDS011;22788;51.434;6.786;2023-04-01T01:36:34;7.93;;;3.07;;
36855;SDS011;22788;51.434;6.786;2023-04-01T01:39:01;5.67;;;2.43;;
36855;SDS011;22788;51.434;6.786;2023-04-01T01:41:27;6.93;;;2.90;;
36855;SDS011;22788;51.434;6.786;2023-04-01T01:43:55;5.30;;;2.47;;
36855;SDS011;22788;51.434;6.786;2023-04-01T01:46:23;5.47;;;2.30;;
36855;SDS011;22788;51.434;6.786;2023-04-01T01:48:51;3.93;;;2.63;;
36855;SDS011;22788;51.434;6.786;2023-04-01T01:51:18;4.43;;;2.43;;
36855;SDS011;22788;51.434;6.786;2023-04-01T01:53:46;6.97;;;3.23;;
36855;SDS011;22788;51.434;6.786;2023-04-01T01:56:12;4.10;;;2.23;;
36855;SDS011;22788;51.434;6.786;2023-04-01T01:58:38;4.20;;;2.43;;
36855;SDS011;22788;51.434;6.786;2023-04-01T02:01:08;3.40;;;2.10;;
36855;SDS011;22788;51.434;6.786;2023-04-01T02:03:37;4.13;;;2.43;;
36855;SDS011;22788;51.434;6.786;2023-04-01T02:06:07;4.47;;;2.50;;
36855;SDS011;22788;51.434;6.786;2023-04-01T02:08:35;4.27;;;2.10;;
36855;SDS011;22788;51.434;6.786;2023-04-01T02:11:07;5.23;;;2.43;;
36855;SDS011;22788;51.434;6.786;2023-04-01T02:13:35;9.17;;;3.97;;
36855;SDS011;22788;51.434;6.786;2023-04-01T02:16:08;5.37;;;2.90;;
36855;SDS011;22788;51.434;6.786;2023-04-01T02:18:38;3.77;;;2.43;;
36855;SDS011;22788;51.434;6.786;2023-04-01T02:21:04;3.50;;;2.07;;
36855;SDS011;22788;51.434;6.786;2023-04-01T02:23:31;3.60;;;2.17;;
36855;SDS011;22788;51.434;6.786;2023-04-01T02:25:59;3.13;;;2.00;;
36855;SDS011;22788;51.434;6.786;2023-04-01T02:28:26;6.17;;;1.97;;
36855;SDS011;22788;51.434;6.786;2023-04-01T02:30:54;3.50;;;1.80;;
36855;SDS011;22788;51.434;6.786;2023-04-01T02:33:22;2.17;;;1.80;;
36855;SDS011;22788;51.434;6.786;2023-04-01T02:35:49;3.63;;;1.80;;
36855;SDS011;22788;51.434;6.786;2023-04-01T02:38:15;2.50;;;1.60;;
36855;SDS011;22788;51.434;6.786;2023-04-01T02:40:45;3.60;;;1.87;;
36855;SDS011;22788;51.434;6.786;2023-04-01T02:43:13;3.13;;;2.00;;
36855;SDS011;22788;51.434;6.786;2023-04-01T02:45:40;2.97;;;1.47;;
36855;SDS011;22788;51.434;6.786;2023-04-01T02:48:06;2.80;;;1.63;;
36855;SDS011;22788;51.434;6.786;2023-04-01T02:50:31;2.13;;;1.50;;
36855;SDS011;22788;51.434;6.786;2023-04-01T02:52:57;2.87;;;1.57;;
36855;SDS011;22788;51.434;6.786;2023-04-01T02:55:23;3.77;;;1.57;;
36855;SDS011;22788;51.434;6.786;2023-04-01T02:57:48;2.60;;;1.60;;
36855;SDS011;22788;51.434;6.786;2023-04-01T03:00:14;3.80;;;1.40;;
36855;SDS011;22788;51.434;6.786;2023-04-01T03:02:42;2.17;;;1.27;;
36855;SDS011;22788;51.434;6.786;2023-04-01T03:05:08;4.03;;;1.80;;
36855;SDS011;22788;51.434;6.786;2023-04-01T03:07:34;4.77;;;1.30;;
36855;SDS011;22788;51.434;6.786;2023-04-01T03:09:59;3.30;;;1.37;;
36855;SDS011;22788;51.434;6.786;2023-04-01T03:12:25;5.03;;;1.60;;
36855;SDS011;22788;51.434;6.786;2023-04-01T03:14:50;2.13;;;1.40;;
36855;SDS011;22788;51.434;6.786;2023-04-01T03:17:16;2.90;;;1.70;;
36855;SDS011;22788;51.434;6.786;2023-04-01T03:19:43;2.50;;;1.50;;
36855;SDS011;22788;51.434;6.786;2023-04-01T03:22:09;2.10;;;1.50;;
36855;SDS011;22788;51.434;6.786;2023-04-01T03:24:36;3.00;;;1.20;;
36855;SDS011;22788;51.434;6.786;2023-04-01T03:27:02;1.90;;;1.50;;
36855;SDS011;22788;51.434;6.786;2023-04-01T03:29:27;1.90;;;1.30;;
36855;SDS011;22788;51.434;6.786;2023-04-01T03:31:53;4.00;;;1.50;;
36855;SDS011;22788;51.434;6.786;2023-04-01T03:34:19;2.20;;;1.30;;
36855;SDS011;22788;51.434;6.786;2023-04-01T03:36:45;2.50;;;1.40;;
36855;SDS011;22788;51.434;6.786;2023-04-01T03:39:11;2.27;;;1.70;;
36855;SDS011;22788;51.434;6.786;2023-04-01T03:41:37;1.73;;;1.00;;
36855;SDS011;22788;51.434;6.786;2023-04-01T03:44:02;3.03;;;1.50;;
36855;SDS011;22788;51.434;6.786;2023-04-01T03:46:28;1.57;;;1.10;;
36855;SDS011;22788;51.434;6.786;2023-04-01T03:48:54;1.03;;;1.00;;
36855;SDS011;22788;51.434;6.786;2023-04-01T03:51:19;1.33;;;1.10;;
36855;SDS011;22788;51.434;6.786;2023-04-01T03:53:46;1.67;;;1.10;;
36855;SDS011;22788;51.434;6.786;2023-04-01T03:56:12;1.33;;;1.13;;
36855;SDS011;22788;51.434;6.786;2023-04-01T03:58:37;2.13;;;1.20;;
36855;SDS011;22788;51.434;6.786;2023-04-01T04:01:03;1.57;;;1.30;;
36855;SDS011;22788;51.434;6.786;2023-04-01T04:03:37;1.80;;;1.43;;
36855;SDS011;22788;51.434;6.786;2023-04-01T04:06:03;2.70;;;1.27;;
36855;SDS011;22788;51.434;6.786;2023-04-01T04:08:29;1.93;;;1.50;;
36855;SDS011;22788;51.434;6.786;2023-04-01T04:10:56;3.73;;;1.30;;
36855;SDS011;22788;51.434;6.786;2023-04-01T04:13:21;2.00;;;1.30;;
36855;SDS011;22788;51.434;6.786;2023-04-01T04:15:47;3.03;;;1.97;;
36855;SDS011;22788;51.434;6.786;2023-04-01T04:18:13;1.63;;;1.50;;
36855;SDS011;22788;51.434;6.786;2023-04-01T04:20:42;1.50;;;1.30;;
36855;SDS011;22788;51.434;6.786;2023-04-01T04:23:08;1.30;;;1.20;;
36855;SDS011;22788;51.434;6.786;2023-04-01T04:25:34;3.03;;;1.90;;
36855;SDS011;22788;51.434;6.786;2023-04-01T04:28:01;2.57;;;1.20;;
36855;SDS011;22788;51.434;6.786;2023-04-01T04:30:26;3.03;;;1.30;;
36855;SDS011;22788;51.434;6.786;2023-04-01T04:32:52;1.50;;;1.30;;
36855;SDS011;22788;51.434;6.786;2023-04-01T04:35:18;2.23;;;1.43;;
36855;SDS011;22788;51.434;6.786;2023-04-01T04:37:43;1.70;;;1.10;;
36855;SDS011;22788;51.434;6.786;2023-04-01T04:40:09;2.00;;;1.20;;
36855;SDS011;22788;51.434;6.786;2023-04-01T04:42:35;1.87;;;1.20;;
36855;SDS011;22788;51.434;6.786;2023-04-01T04:45:02;1.60;;;1.40;;
36855;SDS011;22788;51.434;6.786;2023-04-01T04:47:28;1.50;;;1.13;;
36855;SDS011;22788;51.434;6.786;2023-04-01T04:49:54;3.43;;;1.10;;
36855;SDS011;22788;51.434;6.786;2023-04-01T04:52:19;2.33;;;1.53;;
36855;SDS011;22788;51.434;6.786;2023-04-01T04:54:45;1.63;;;1.33;;
36855;SDS011;22788;51.434;6.786;2023-04-01T04:57:11;1.47;;;1.20;;
36855;SDS011;22788;51.434;6.786;2023-04-01T04:59:36;3.33;;;1.20;;
36855;SDS011;22788;51.434;6.786;2023-04-01T05:02:03;1.50;;;1.00;;
36855;SDS011;22788;51.434;6.786;2023-04-01T05:04:29;3.20;;;1.40;;
36855;SDS011;22788;51.434;6.786;2023-04-01T05:06:54;2.30;;;0.90;;
36855;SDS011;22788;51.434;6.786;2023-04-01T05:09:20;3.23;;;1.60;;
36855;SDS011;22788;51.434;6.786;2023-04-01T05:11:46;1.00;;;0.90;;
36855;SDS011;22788;51.434;6.786;2023-04-01T05:14:12;1.10;;;1.00;;
36855;SDS011;22788;51.434;6.786;2023-04-01T05:16:38;1.10;;;1.00;;
36855;SDS011;22788;51.434;6.786;2023-04-01T05:19:05;1.20;;;1.03;;
36855;SDS011;22788;51.434;6.786;2023-04-01T05:21:31;1.83;;;1.10;;
36855;SDS011;22788;51.434;6.786;2023-04-01T05:23:57;2.77;;;1.40;;
36855;SDS011;22788;51.434;6.786;2023-04-01T05:26:22;2.07;;;1.30;;
36855;SDS011;22788;51.434;6.786;2023-04-01T05:28:48;3.20;;;1.40;;
36855;SDS011;22788;51.434;6.786;2023-04-01T05:31:13;1.70;;;1.20;;
36855;SDS011;22788;51.434;6.786;2023-04-01T05:33:39;2.90;;;1.40;;
36855;SDS011;22788;51.434;6.786;2023-04-01T05:36:07;1.20;;;1.10;;
36855;SDS011;22788;51.434;6.786;2023-04-01T05:38:33;2.03;;;1.23;;
36855;SDS011;22788;51.434;6.786;2023-04-01T05:40:59;1.97;;;1.40;;
36855;SDS011;22788;51.434;6.786;2023-04-01T05:43:25;1.40;;;1.30;;
36855;SDS011;22788;51.434;6.786;2023-04-01T05:45:51;1.53;;;1.00;;
36855;SDS011;22788;51.434;6.786;2023-04-01T05:48:16;2.23;;;1.70;;
36855;SDS011;22788;51.434;6.786;2023-04-01T05:50:42;1.50;;;1.40;;
36855;SDS011;22788;51.434;6.786;2023-04-01T05:53:09;1.17;;;1.07;;
36855;SDS011;22788;51.434;6.786;2023-04-01T05:55:34;2.10;;;1.90;;
36855;SDS011;22788;51.434;6.786;2023-04-01T05:58:00;2.37;;;1.80;;
36855;SDS011;22788;51.434;6.786;2023-04-01T06:00:26;1.97;;;1.60;;
36855;SDS011;22788;51.434;6.786;2023-04-01T06:02:51;2.50;;;2.20;;
36855;SDS011;22788;51.434;6.786;2023-04-01T06:05:17;2.20;;;1.67;;
36855;SDS011;22788;51.434;6.786;2023-04-01T06:07:45;2.83;;;1.83;;
36855;SDS011;22788;51.434;6.786;2023-04-01T06:10:25;2.17;;;1.60;;
36855;SDS011;22788;51.434;6.786;2023-04-01T06:13:01;1.33;;;1.23;;
36855;SDS011;22788;51.434;6.786;2023-04-01T06:15:36;2.33;;;1.70;;
36855;SDS011;22788;51.434;6.786;2023-04-01T06:18:12;1.40;;;1.30;;
36855;SDS011;22788;51.434;6.786;2023-04-01T06:20:59;2.23;;;1.93;;
36855;SDS011;22788;51.434;6.786;2023-04-01T06:23:42;1.70;;;1.60;;
36855;SDS011;22788;51.434;6.786;2023-04-01T06:26:25;2.63;;;1.50;;
36855;SDS011;22788;51.434;6.786;2023-04-01T06:32:08;3.63;;;1.80;;
36855;SDS011;22788;51.434;6.786;2023-04-01T06:34:49;2.47;;;2.23;;
36855;SDS011;22788;51.434;6.786;2023-04-01T06:37:42;2.00;;;1.70;;
36855;SDS011;22788;51.434;6.786;2023-04-01T06:40:21;2.50;;;2.20;;
36855;SDS011;22788;51.434;6.786;2023-04-01T06:43:01;2.33;;;2.00;;
36855;SDS011;22788;51.434;6.786;2023-04-01T06:45:36;4.30;;;2.77;;
36855;SDS011;22788;51.434;6.786;2023-04-01T06:48:16;5.07;;;3.57;;
36855;SDS011;22788;51.434;6.786;2023-04-01T06:51:01;2.07;;;1.87;;
36855;SDS011;22788;51.434;6.786;2023-04-01T06:53:41;2.17;;;1.97;;
36855;SDS011;22788;51.434;6.786;2023-04-01T06:56:15;2.07;;;1.87;;
36855;SDS011;22788;51.434;6.786;2023-04-01T06:58:44;3.60;;;2.70;;
36855;SDS011;22788;51.434;6.786;2023-04-01T07:01:14;3.23;;;2.30;;
36855;SDS011;22788;51.434;6.786;2023-04-01T07:03:44;2.40;;;2.20;;
36855;SDS011;22788;51.434;6.786;2023-04-01T07:06:16;3.27;;;2.00;;
36855;SDS011;22788;51.434;6.786;2023-04-01T07:08:49;2.57;;;2.20;;
36855;SDS011;22788;51.434;6.786;2023-04-01T07:11:21;2.23;;;1.90;;
36855;SDS011;22788;51.434;6.786;2023-04-01T07:13:52;2.20;;;1.83;;
36855;SDS011;22788;51.434;6.786;2023-04-01T07:16:21;4.77;;;2.63;;
36855;SDS011;22788;51.434;6.786;2023-04-01T07:18:52;3.43;;;2.50;;
36855;SDS011;22788;51.434;6.786;2023-04-01T07:21:25;2.43;;;1.80;;
36855;SDS011;22788;51.434;6.786;2023-04-01T07:23:54;2.40;;;2.00;;
36855;SDS011;22788;51.434;6.786;2023-04-01T07:26:24;3.20;;;2.50;;
36855;SDS011;22788;51.434;6.786;2023-04-01T07:28:52;2.43;;;2.13;;
36855;SDS011;22788;51.434;6.786;2023-04-01T07:31:20;2.60;;;2.20;;
36855;SDS011;22788;51.434;6.786;2023-04-01T07:33:57;3.87;;;2.60;;
36855;SDS011;22788;51.434;6.786;2023-04-01T07:36:31;2.77;;;2.40;;
36855;SDS011;22788;51.434;6.786;2023-04-01T07:39:05;3.07;;;2.73;;
36855;SDS011;22788;51.434;6.786;2023-04-01T07:41:43;2.43;;;2.23;;
36855;SDS011;22788;51.434;6.786;2023-04-01T07:44:18;2.83;;;2.00;;
36855;SDS011;22788;51.434;6.786;2023-04-01T07:46:53;4.40;;;3.17;;
36855;SDS011;22788;51.434;6.786;2023-04-01T07:49:45;2.20;;;2.00;;
36855;SDS011;22788;51.434;6.786;2023-04-01T07:52:20;3.07;;;2.60;;
36855;SDS011;22788;51.434;6.786;2023-04-01T07:54:55;3.23;;;2.80;;
36855;SDS011;22788;51.434;6.786;2023-04-01T07:57:28;3.07;;;2.53;;
36855;SDS011;22788;51.434;6.786;2023-04-01T08:00:02;4.77;;;3.13;;
36855;SDS011;22788;51.434;6.786;2023-04-01T08:02:39;2.00;;;1.77;;
36855;SDS011;22788;51.434;6.786;2023-04-01T08:05:18;3.83;;;2.73;;
36855;SDS011;22788;51.434;6.786;2023-04-01T08:07:51;3.33;;;2.37;;
36855;SDS011;22788;51.434;6.786;2023-04-01T08:10:28;4.07;;;3.07;;
36855;SDS011;22788;51.434;6.786;2023-04-01T08:13:03;3.80;;;2.67;;
36855;SDS011;22788;51.434;6.786;2023-04-01T08:15:44;4.23;;;3.13;;
36855;SDS011;22788;51.434;6.786;2023-04-01T08:18:26;4.23;;;3.37;;
36855;SDS011;22788;51.434;6.786;2023-04-01T08:21:01;3.67;;;3.27;;
36855;SDS011;22788;51.434;6.786;2023-04-01T08:23:32;4.80;;;3.93;;
36855;SDS011;22788;51.434;6.786;2023-04-01T08:26:05;3.77;;;2.73;;
36855;SDS011;22788;51.434;6.786;2023-04-01T08:28:36;2.73;;;2.53;;
36855;SDS011;22788;51.434;6.786;2023-04-01T08:31:10;2.33;;;2.07;;
36855;SDS011;22788;51.434;6.786;2023-04-01T08:33:41;3.17;;;2.87;;
36855;SDS011;22788;51.434;6.786;2023-04-01T08:36:11;3.20;;;2.50;;
36855;SDS011;22788;51.434;6.786;2023-04-01T08:38:42;2.93;;;2.37;;
36855;SDS011;22788;51.434;6.786;2023-04-01T08:41:18;3.40;;;3.00;;
36855;SDS011;22788;51.434;6.786;2023-04-01T08:44:24;5.10;;;3.10;;
36855;SDS011;22788;51.434;6.786;2023-04-01T08:47:22;2.53;;;2.30;;
36855;SDS011;22788;51.434;6.786;2023-04-01T08:50:24;4.27;;;2.90;;
36855;SDS011;22788;51.434;6.786;2023-04-01T08:53:10;3.37;;;2.87;;
36855;SDS011;22788;51.434;6.786;2023-04-01T08:55:48;4.23;;;3.60;;
36855;SDS011;22788;51.434;6.786;2023-04-01T08:58:31;6.17;;;4.53;;
36855;SDS011;22788;51.434;6.786;2023-04-01T09:01:19;4.20;;;3.20;;
36855;SDS011;22788;51.434;6.786;2023-04-01T09:06:57;5.57;;;3.17;;
36855;SDS011;22788;51.434;6.786;2023-04-01T09:09:53;4.70;;;3.07;;
36855;SDS011;22788;51.434;6.786;2023-04-01T09:12:43;4.10;;;3.40;;
36855;SDS011;22788;51.434;6.786;2023-04-01T09:18:22;5.90;;;3.00;;
36855;SDS011;22788;51.434;6.786;2023-04-01T09:21:04;5.33;;;3.93;;
36855;SDS011;22788;51.434;6.786;2023-04-01T09:23:46;6.10;;;3.83;;
36855;SDS011;22788;51.434;6.786;2023-04-01T09:26:37;5.70;;;4.33;;
36855;SDS011;22788;51.434;6.786;2023-04-01T09:29:24;7.57;;;5.60;;
36855;SDS011;22788;51.434;6.786;2023-04-01T09:32:10;8.27;;;5.87;;
36855;SDS011;22788;51.434;6.786;2023-04-01T09:34:54;3.80;;;3.10;;
36855;SDS011;22788;51.434;6.786;2023-04-01T09:37:26;5.40;;;4.30;;
36855;SDS011;22788;51.434;6.786;2023-04-01T09:40:14;7.90;;;5.63;;
36855;SDS011;22788;51.434;6.786;2023-04-01T09:42:43;8.00;;;4.67;;
36855;SDS011;22788;51.434;6.786;2023-04-01T09:45:17;9.20;;;5.13;;
36855;SDS011;22788;51.434;6.786;2023-04-01T09:48:05;9.57;;;5.60;;
36855;SDS011;22788;51.434;6.786;2023-04-01T09:50:42;7.00;;;4.43;;
36855;SDS011;22788;51.434;6.786;2023-04-01T09:53:27;7.53;;;5.77;;
36855;SDS011;22788;51.434;6.786;2023-04-01T09:59:08;7.63;;;5.63;;
36855;SDS011;22788;51.434;6.786;2023-04-01T10:02:14;5.43;;;4.00;;
36855;SDS011;22788;51.434;6.786;2023-04-01T10:05:27;7.60;;;5.00;;
36855;SDS011;22788;51.434;6.786;2023-04-01T10:08:16;6.03;;;4.70;;
36855;SDS011;22788;51.434;6.786;2023-04-01T10:14:07;9.47;;;5.63;;
36855;SDS011;22788;51.434;6.786;2023-04-01T10:20:12;14.88;;;10.80;;
36855;SDS011;22788;51.434;6.786;2023-04-01T10:29:38;16.77;;;11.40;;
36855;SDS011;22788;51.434;6.786;2023-04-01T10:41:10;13.77;;;7.87;;
36855;SDS011;22788;51.434;6.786;2023-04-01T10:44:11;14.03;;;8.40;;
36855;SDS011;22788;51.434;6.786;2023-04-01T10:56:11;17.80;;;10.97;;
36855;SDS011;22788;51.434;6.786;2023-04-01T11:11:28;12.73;;;8.67;;
36855;SDS011;22788;51.434;6.786;2023-04-01T11:14:30;11.57;;;8.20;;
36855;SDS011;22788;51.434;6.786;2023-04-01T11:23:32;16.17;;;9.93;;
36855;SDS011;22788;51.434;6.786;2023-04-01T11:26:14;11.87;;;8.37;;
36855;SDS011;22788;51.434;6.786;2023-04-01T11:28:54;10.77;;;7.27;;
36855;SDS011;22788;51.434;6.786;2023-04-01T11:31:38;15.27;;;9.00;;
36855;SDS011;22788;51.434;6.786;2023-04-01T11:34:16;12.93;;;9.30;;
36855;SDS011;22788;51.434;6.786;2023-04-01T11:36:58;13.50;;;9.17;;
36855;SDS011;22788;51.434;6.786;2023-04-01T11:39:38;11.93;;;8.23;;
36855;SDS011;22788;51.434;6.786;2023-04-01T11:42:17;10.53;;;7.73;;
36855;SDS011;22788;51.434;6.786;2023-04-01T11:44:51;11.97;;;7.60;;
36855;SDS011;22788;51.434;6.786;2023-04-01T11:50:21;12.67;;;8.53;;
36855;SDS011;22788;51.434;6.786;2023-04-01T11:53:08;13.87;;;8.83;;
36855;SDS011;22788;51.434;6.786;2023-04-01T11:55:50;11.80;;;8.57;;
36855;SDS011;22788;51.434;6.786;2023-04-01T11:58:36;10.70;;;8.10;;
36855;SDS011;22788;51.434;6.786;2023-04-01T12:01:20;14.57;;;8.47;;
36855;SDS011;22788;51.434;6.786;2023-04-01T12:04:00;12.00;;;8.07;;
36855;SDS011;22788;51.434;6.786;2023-04-01T12:06:43;12.47;;;8.07;;
36855;SDS011;22788;51.434;6.786;2023-04-01T12:09:18;7.97;;;6.40;;
36855;SDS011;22788;51.434;6.786;2023-04-01T12:11:51;12.90;;;8.40;;
36855;SDS011;22788;51.434;6.786;2023-04-01T12:14:27;11.67;;;8.13;;
36855;SDS011;22788;51.434;6.786;2023-04-01T12:16:59;13.53;;;9.23;;
36855;SDS011;22788;51.434;6.786;2023-04-01T12:19:31;9.83;;;6.87;;
36855;SDS011;22788;51.434;6.786;2023-04-01T12:24:59;10.23;;;6.93;;
36855;SDS011;22788;51.434;6.786;2023-04-01T12:27:42;12.90;;;8.13;;
36855;SDS011;22788;51.434;6.786;2023-04-01T12:30:18;9.63;;;7.53;;
36855;SDS011;22788;51.434;6.786;2023-04-01T12:32:55;10.17;;;6.70;;
36855;SDS011;22788;51.434;6.786;2023-04-01T12:35:48;10.50;;;6.50;;
36855;SDS011;22788;51.434;6.786;2023-04-01T12:38:24;8.47;;;6.27;;
36855;SDS011;22788;51.434;6.786;2023-04-01T12:41:01;10.00;;;6.93;;
36855;SDS011;22788;51.434;6.786;2023-04-01T12:43:40;9.23;;;6.50;;
36855;SDS011;22788;51.434;6.786;2023-04-01T12:46:32;10.90;;;7.93;;
36855;SDS011;22788;51.434;6.786;2023-04-01T12:49:25;16.27;;;9.47;;
36855;SDS011;22788;51.434;6.786;2023-04-01T12:52:00;11.10;;;7.87;;
36855;SDS011;22788;51.434;6.786;2023-04-01T12:54:41;13.17;;;8.83;;
36855;SDS011;22788;51.434;6.786;2023-04-01T12:57:30;15.47;;;9.30;;
36855;SDS011;22788;51.434;6.786;2023-04-01T13:00:15;11.97;;;7.43;;
36855;SDS011;22788;51.434;6.786;2023-04-01T13:02:56;10.33;;;7.37;;
36855;SDS011;22788;51.434;6.786;2023-04-01T13:05:50;12.60;;;8.40;;
36855;SDS011;22788;51.434;6.786;2023-04-01T13:08:45;14.73;;;9.23;;
36855;SDS011;22788;51.434;6.786;2023-04-01T13:11:18;13.87;;;8.20;;
36855;SDS011;22788;51.434;6.786;2023-04-01T13:13:52;13.67;;;8.10;;
36855;SDS011;22788;51.434;6.786;2023-04-01T13:16:48;16.13;;;9.53;;
36855;SDS011;22788;51.434;6.786;2023-04-01T13:19:21;12.60;;;9.00;;
36855;SDS011;22788;51.434;6.786;2023-04-01T13:21:54;12.03;;;7.60;;
36855;SDS011;22788;51.434;6.786;2023-04-01T13:24:30;12.33;;;7.97;;
36855;SDS011;22788;51.434;6.786;2023-04-01T13:27:06;14.63;;;9.10;;
36855;SDS011;22788;51.434;6.786;2023-04-01T13:29:39;14.70;;;8.47;;
36855;SDS011;22788;51.434;6.786;2023-04-01T13:32:13;12.97;;;8.03;;
36855;SDS011;22788;51.434;6.786;2023-04-01T13:34:52;14.73;;;8.20;;
36855;SDS011;22788;51.434;6.786;2023-04-01T13:37:38;19.10;;;9.53;;
36855;SDS011;22788;51.434;6.786;2023-04-01T13:43:14;10.67;;;6.80;;
36855;SDS011;22788;51.434;6.786;2023-04-01T13:45:49;12.33;;;7.83;;
36855;SDS011;22788;51.434;6.786;2023-04-01T13:51:22;11.80;;;7.03;;
36855;SDS011;22788;51.434;6.786;2023-04-01T13:54:20;14.17;;;7.53;;
36855;SDS011;22788;51.434;6.786;2023-04-01T13:57:14;12.00;;;7.67;;
36855;SDS011;22788;51.434;6.786;2023-04-01T14:03:00;10.03;;;6.93;;
36855;SDS011;22788;51.434;6.786;2023-04-01T14:05:42;13.13;;;7.80;;
36855;SDS011;22788;51.434;6.786;2023-04-01T14:08:17;12.10;;;6.83;;
36855;SDS011;22788;51.434;6.786;2023-04-01T14:10:53;11.73;;;6.77;;
36855;SDS011;22788;51.434;6.786;2023-04-01T14:13:28;10.83;;;7.27;;
36855;SDS011;22788;51.434;6.786;2023-04-01T14:16:05;9.50;;;6.57;;
36855;SDS011;22788;51.434;6.786;2023-04-01T14:18:59;8.10;;;5.87;;
36855;SDS011;22788;51.434;6.786;2023-04-01T14:21:35;8.07;;;6.10;;
36855;SDS011;22788;51.434;6.786;2023-04-01T14:24:18;8.80;;;6.00;;
36855;SDS011;22788;51.434;6.786;2023-04-01T14:29:49;6.83;;;5.67;;
36855;SDS011;22788;51.434;6.786;2023-04-01T14:32:28;9.57;;;5.97;;
36855;SDS011;22788;51.434;6.786;2023-04-01T14:35:20;8.20;;;5.50;;
36855;SDS011;22788;51.434;6.786;2023-04-01T14:40:52;7.83;;;5.77;;
36855;SDS011;22788;51.434;6.786;2023-04-01T14:43:23;7.93;;;5.70;;
36855;SDS011;22788;51.434;6.786;2023-04-01T14:46:17;9.67;;;5.60;;
36855;SDS011;22788;51.434;6.786;2023-04-01T14:49:14;8.40;;;5.63;;
36855;SDS011;22788;51.434;6.786;2023-04-01T14:51:42;7.33;;;5.33;;
36855;SDS011;22788;51.434;6.786;2023-04-01T14:54:12;7.93;;;5.83;;
36855;SDS011;22788;51.434;6.786;2023-04-01T14:56:41;8.30;;;5.57;;
36855;SDS011;22788;51.434;6.786;2023-04-01T14:59:13;7.33;;;5.23;;
36855;SDS011;22788;51.434;6.786;2023-04-01T15:01:50;5.73;;;4.43;;
36855;SDS011;22788;51.434;6.786;2023-04-01T15:04:25;6.23;;;5.00;;
36855;SDS011;22788;51.434;6.786;2023-04-01T15:07:14;6.97;;;5.10;;
36855;SDS011;22788;51.434;6.786;2023-04-01T15:09:58;7.67;;;5.43;;
36855;SDS011;22788;51.434;6.786;2023-04-01T15:12:33;10.03;;;5.63;;
36855;SDS011;22788;51.434;6.786;2023-04-01T15:15:11;7.83;;;4.97;;
36855;SDS011;22788;51.434;6.786;2023-04-01T15:17:49;7.00;;;5.70;;
36855;SDS011;22788;51.434;6.786;2023-04-01T15:20:25;7.17;;;5.07;;
36855;SDS011;22788;51.434;6.786;2023-04-01T15:23:04;7.70;;;5.60;;
36855;SDS011;22788;51.434;6.786;2023-04-01T15:25:48;6.43;;;4.70;;
36855;SDS011;22788;51.434;6.786;2023-04-01T15:28:30;8.37;;;5.30;;
36855;SDS011;22788;51.434;6.786;2023-04-01T15:31:02;7.53;;;4.97;;
36855;SDS011;22788;51.434;6.786;2023-04-01T15:33:40;6.53;;;5.07;;
36855;SDS011;22788;51.434;6.786;2023-04-01T15:36:18;6.50;;;4.77;;
36855;SDS011;22788;51.434;6.786;2023-04-01T15:38:58;7.37;;;4.77;;
36855;SDS011;22788;51.434;6.786;2023-04-01T15:41:39;6.67;;;4.73;;
36855;SDS011;22788;51.434;6.786;2023-04-01T15:47:07;5.77;;;4.43;;
36855;SDS011;22788;51.434;6.786;2023-04-01T15:50:17;6.90;;;4.40;;
36855;SDS011;22788;51.434;6.786;2023-04-01T15:53:22;6.47;;;5.03;;
36855;SDS011;22788;51.434;6.786;2023-04-01T15:56:06;4.77;;;4.20;;
36855;SDS011;22788;51.434;6.786;2023-04-01T15:58:44;5.87;;;3.80;;
36855;SDS011;22788;51.434;6.786;2023-04-01T16:01:23;5.07;;;3.90;;
36855;SDS011;22788;51.434;6.786;2023-04-01T16:03:55;4.53;;;4.00;;
36855;SDS011;22788;51.434;6.786;2023-04-01T16:06:36;5.00;;;4.00;;
36855;SDS011;22788;51.434;6.786;2023-04-01T16:09:19;6.70;;;4.80;;
36855;SDS011;22788;51.434;6.786;2023-04-01T16:12:11;6.07;;;4.47;;
36855;SDS011;22788;51.434;6.786;2023-04-01T16:14:48;7.53;;;4.83;;
36855;SDS011;22788;51.434;6.786;2023-04-01T16:17:24;5.40;;;4.77;;
36855;SDS011;22788;51.434;6.786;2023-04-01T16:19:58;4.67;;;3.80;;
36855;SDS011;22788;51.434;6.786;2023-04-01T16:22:27;5.07;;;4.03;;
36855;SDS011;22788;51.434;6.786;2023-04-01T16:25:00;5.53;;;4.03;;
36855;SDS011;22788;51.434;6.786;2023-04-01T16:27:44;4.80;;;4.10;;
36855;SDS011;22788;51.434;6.786;2023-04-01T16:30:32;5.70;;;3.80;;
36855;SDS011;22788;51.434;6.786;2023-04-01T16:33:01;5.30;;;4.53;;
36855;SDS011;22788;51.434;6.786;2023-04-01T16:35:39;5.27;;;4.23;;
36855;SDS011;22788;51.434;6.786;2023-04-01T16:38:11;4.07;;;3.53;;
36855;SDS011;22788;51.434;6.786;2023-04-01T16:40:42;7.43;;;4.87;;
36855;SDS011;22788;51.434;6.786;2023-04-01T16:43:19;6.83;;;4.27;;
36855;SDS011;22788;51.434;6.786;2023-04-01T16:45:56;5.73;;;4.40;;
36855;SDS011;22788;51.434;6.786;2023-04-01T16:48:45;6.87;;;4.80;;
36855;SDS011;22788;51.434;6.786;2023-04-01T16:51:23;8.23;;;4.67;;
36855;SDS011;22788;51.434;6.786;2023-04-01T16:53:49;5.13;;;4.23;;
36855;SDS011;22788;51.434;6.786;2023-04-01T16:56:27;5.17;;;4.13;;